createdAt,value
2018-07-16T00:00:40.940Z,18.79
2018-07-16T00:01:44.244Z,18.79
2018-07-16T00:02:47.256Z,18.85
2018-07-16T00:03:50.654Z,18.66
2018-07-16T00:04:54.590Z,18.56
2018-07-16T00:05:57.524Z,18.30
2018-07-16T00:07:01.238Z,18.07
2018-07-16T00:08:04.246Z,17.94
2018-07-16T00:09:07.156Z,18.14
2018-07-16T00:10:10.181Z,18.38
2018-07-16T00:11:13.029Z,18.38
2018-07-16T00:12:16.064Z,18.41
2018-07-16T00:13:19.718Z,18.51
2018-07-16T00:14:22.991Z,18.35
2018-07-16T00:15:26.822Z,18.33
2018-07-16T00:16:29.941Z,18.34
2018-07-16T00:17:33.967Z,18.39
2018-07-16T00:18:38.000Z,18.43
2018-07-16T00:19:41.193Z,18.48
2018-07-16T00:20:44.061Z,18.37
2018-07-16T00:21:46.945Z,18.38
2018-07-16T00:22:49.780Z,18.55
2018-07-16T00:23:52.704Z,18.55
2018-07-16T00:24:55.951Z,18.38
2018-07-16T00:25:59.189Z,18.13
2018-07-16T00:27:02.040Z,17.88
2018-07-16T00:28:04.908Z,17.64
2018-07-16T00:29:07.755Z,17.47
2018-07-16T00:30:10.615Z,17.25
2018-07-16T00:31:13.468Z,17.19
2018-07-16T00:32:16.656Z,17.08
2018-07-16T00:33:19.512Z,17.07
2018-07-16T00:34:22.386Z,17.10
2018-07-16T00:35:25.254Z,17.29
2018-07-16T00:36:28.364Z,17.66
2018-07-16T00:37:32.168Z,17.89
2018-07-16T00:38:36.759Z,17.78
2018-07-16T00:39:39.629Z,17.59
2018-07-16T00:40:43.097Z,17.52
2018-07-16T00:41:46.491Z,17.53
2018-07-16T00:42:49.349Z,17.57
2018-07-16T00:43:53.672Z,17.54
2018-07-16T00:44:57.840Z,17.43
2018-07-16T00:46:00.668Z,17.24
2018-07-16T00:47:03.512Z,16.99
2018-07-16T00:48:06.400Z,16.99
2018-07-16T00:49:09.240Z,17.01
2018-07-16T00:50:12.076Z,17.13
2018-07-16T00:51:15.196Z,17.29
2018-07-16T00:52:18.043Z,17.41
2018-07-16T00:53:20.906Z,17.53
2018-07-16T00:54:23.789Z,17.51
2018-07-16T00:55:28.087Z,17.56
2018-07-16T00:56:33.216Z,17.55
2018-07-16T00:57:42.145Z,17.50
2018-07-16T00:58:48.309Z,17.60
2018-07-16T00:59:53.272Z,17.45
2018-07-16T01:00:59.532Z,17.36
2018-07-16T01:02:03.712Z,17.37
2018-07-16T01:03:06.841Z,17.42
2018-07-16T01:04:11.134Z,17.42
2018-07-16T01:05:14.368Z,17.54
2018-07-16T01:06:17.775Z,17.65
2018-07-16T01:07:20.575Z,17.62
2018-07-16T01:08:23.389Z,17.55
2018-07-16T01:09:26.226Z,17.52
2018-07-16T01:10:29.344Z,17.44
2018-07-16T01:11:32.201Z,17.44
2018-07-16T01:12:35.003Z,17.40
2018-07-16T01:13:37.829Z,17.33
2018-07-16T01:14:40.649Z,17.29
2018-07-16T01:15:43.465Z,17.34
2018-07-16T01:16:46.563Z,17.39
2018-07-16T01:17:50.286Z,17.29
2018-07-16T01:18:53.101Z,16.76
2018-07-16T01:19:55.907Z,16.46
2018-07-16T01:20:59.447Z,16.28
2018-07-16T01:22:02.278Z,16.07
2018-07-16T01:23:05.398Z,16.26
2018-07-16T01:24:08.245Z,16.59
2018-07-16T01:25:11.041Z,16.71
2018-07-16T01:26:14.707Z,16.83
2018-07-16T01:27:17.529Z,16.85
2018-07-16T01:28:20.346Z,16.93
2018-07-16T01:29:23.456Z,17.09
2018-07-16T01:30:26.270Z,17.18
2018-07-16T01:31:29.090Z,17.26
2018-07-16T01:32:31.960Z,17.31
2018-07-16T01:33:34.761Z,17.31
2018-07-16T01:34:37.600Z,17.18
2018-07-16T01:35:40.691Z,17.16
2018-07-16T01:36:43.536Z,17.13
2018-07-16T01:37:47.243Z,17.01
2018-07-16T01:38:50.049Z,17.08
2018-07-16T01:39:52.889Z,17.15
2018-07-16T01:40:55.678Z,16.81
2018-07-16T01:41:58.808Z,16.26
2018-07-16T01:43:01.630Z,16.09
2018-07-16T01:44:04.448Z,16.09
2018-07-16T01:45:07.268Z,16.22
2018-07-16T01:46:10.080Z,16.40
2018-07-16T01:47:12.871Z,16.70
2018-07-16T01:48:16.008Z,16.91
2018-07-16T01:49:18.849Z,17.05
2018-07-16T01:50:21.667Z,17.09
2018-07-16T01:51:24.476Z,17.15
2018-07-16T01:52:27.277Z,17.05
2018-07-16T01:53:30.156Z,16.86
2018-07-16T01:54:33.266Z,16.91
2018-07-16T01:55:36.899Z,16.76
2018-07-16T01:56:39.685Z,16.80
2018-07-16T01:57:42.505Z,16.95
2018-07-16T01:58:51.322Z,17.11
2018-07-16T01:59:54.184Z,17.05
2018-07-16T02:00:57.878Z,16.89
2018-07-16T02:02:00.730Z,17.03
2018-07-16T02:03:03.544Z,17.02
2018-07-16T02:04:06.378Z,17.01
2018-07-16T02:05:09.187Z,16.96
2018-07-16T02:06:12.736Z,16.97
2018-07-16T02:07:16.804Z,16.78
2018-07-16T02:08:20.019Z,16.62
2018-07-16T02:09:22.872Z,16.53
2018-07-16T02:10:25.837Z,16.44
2018-07-16T02:11:28.780Z,16.26
2018-07-16T02:12:32.390Z,16.17
2018-07-16T02:13:36.541Z,15.96
2018-07-16T02:14:39.553Z,15.87
2018-07-16T02:15:42.527Z,15.92
2018-07-16T02:16:45.455Z,15.95
2018-07-16T02:17:48.280Z,15.76
2018-07-16T02:18:51.204Z,15.78
2018-07-16T02:19:54.908Z,15.82
2018-07-16T02:20:57.866Z,15.63
2018-07-16T02:22:00.664Z,15.68
2018-07-16T02:23:03.531Z,15.78
2018-07-16T02:24:06.407Z,15.68
2018-07-16T02:25:10.440Z,15.80
2018-07-16T02:26:13.740Z,15.69
2018-07-16T02:27:16.723Z,15.87
2018-07-16T02:28:19.690Z,15.97
2018-07-16T02:29:23.507Z,16.13
2018-07-16T02:30:26.476Z,16.27
2018-07-16T02:31:29.333Z,16.40
2018-07-16T02:32:32.912Z,16.31
2018-07-16T02:33:35.891Z,16.29
2018-07-16T02:34:38.750Z,16.36
2018-07-16T02:35:41.799Z,16.48
2018-07-16T02:36:44.643Z,16.48
2018-07-16T02:37:47.502Z,16.43
2018-07-16T02:38:51.198Z,16.50
2018-07-16T02:39:54.016Z,16.51
2018-07-16T02:40:56.835Z,16.51
2018-07-16T02:42:00.067Z,16.55
2018-07-16T02:43:02.989Z,16.57
2018-07-16T02:44:05.881Z,16.63
2018-07-16T02:45:09.084Z,16.55
2018-07-16T02:46:13.192Z,16.63
2018-07-16T02:47:16.028Z,16.56
2018-07-16T02:48:18.863Z,16.47
2018-07-16T02:49:22.246Z,16.30
2018-07-16T02:50:25.129Z,16.31
2018-07-16T02:51:28.234Z,16.50
2018-07-16T02:52:32.065Z,16.58
2018-07-16T02:53:34.899Z,16.23
2018-07-16T02:54:37.743Z,15.93
2018-07-16T02:55:41.845Z,15.84
2018-07-16T02:56:47.735Z,16.12
2018-07-16T02:57:51.534Z,16.18
2018-07-16T02:58:54.389Z,16.16
2018-07-16T02:59:57.888Z,16.16
2018-07-16T03:01:01.628Z,16.16
2018-07-16T03:02:04.695Z,16.23
2018-07-16T03:03:07.565Z,16.27
2018-07-16T03:04:10.787Z,16.24
2018-07-16T03:05:16.621Z,16.22
2018-07-16T03:06:19.465Z,16.30
2018-07-16T03:07:22.575Z,16.31
2018-07-16T03:08:25.429Z,16.14
2018-07-16T03:09:32.407Z,16.14
2018-07-16T03:10:35.537Z,16.14
2018-07-16T03:11:38.363Z,16.16
2018-07-16T03:12:41.466Z,16.22
2018-07-16T03:13:46.180Z,16.20
2018-07-16T03:14:49.955Z,16.04
2018-07-16T03:15:53.023Z,15.75
2018-07-16T03:16:56.652Z,15.66
2018-07-16T03:17:59.564Z,15.75
2018-07-16T03:19:02.954Z,15.61
2018-07-16T03:20:05.819Z,15.61
2018-07-16T03:21:08.858Z,15.55
2018-07-16T03:22:11.829Z,15.52
2018-07-16T03:23:15.692Z,15.56
2018-07-16T03:24:18.701Z,15.63
2018-07-16T03:25:21.729Z,15.75
2018-07-16T03:26:24.816Z,15.96
2018-07-16T03:27:27.671Z,15.95
2018-07-16T03:28:30.500Z,15.87
2018-07-16T03:29:33.659Z,15.88
2018-07-16T03:30:36.488Z,15.63
2018-07-16T03:31:39.301Z,15.39
2018-07-16T03:32:42.122Z,15.44
2018-07-16T03:33:46.012Z,15.35
2018-07-16T03:34:49.053Z,15.28
2018-07-16T03:35:52.195Z,15.47
2018-07-16T03:36:55.009Z,15.59
2018-07-16T03:37:57.827Z,15.74
2018-07-16T03:39:00.657Z,15.86
2018-07-16T03:40:03.499Z,15.81
2018-07-16T03:41:06.560Z,15.95
2018-07-16T03:42:09.708Z,15.92
2018-07-16T03:43:12.596Z,15.65
2018-07-16T03:44:15.482Z,15.73
2018-07-16T03:45:18.317Z,15.62
2018-07-16T03:46:21.121Z,15.67
2018-07-16T03:47:23.930Z,15.71
2018-07-16T03:48:27.111Z,15.73
2018-07-16T03:49:29.941Z,15.79
2018-07-16T03:50:32.800Z,15.85
2018-07-16T03:51:35.708Z,15.82
2018-07-16T03:52:38.554Z,15.70
2018-07-16T03:53:41.450Z,15.66
2018-07-16T03:54:44.571Z,15.67
2018-07-16T03:55:47.429Z,15.63
2018-07-16T03:56:50.278Z,15.83
2018-07-16T03:57:53.103Z,15.70
2018-07-16T03:58:55.969Z,15.65
2018-07-16T03:59:58.829Z,15.65
2018-07-16T04:01:02.031Z,15.59
2018-07-16T04:02:04.870Z,15.47
2018-07-16T04:03:07.730Z,15.70
2018-07-16T04:04:10.550Z,15.87
2018-07-16T04:05:13.381Z,15.88
2018-07-16T04:06:16.211Z,15.86
2018-07-16T04:07:20.979Z,15.90
2018-07-16T04:08:24.768Z,15.98
2018-07-16T04:09:28.106Z,16.09
2018-07-16T04:10:33.227Z,15.99
2018-07-16T04:11:36.080Z,16.06
2018-07-16T04:12:39.064Z,16.15
2018-07-16T04:13:42.275Z,16.21
2018-07-16T04:14:45.083Z,16.31
2018-07-16T04:15:47.921Z,16.48
2018-07-16T04:16:50.770Z,16.44
2018-07-16T04:17:53.595Z,16.47
2018-07-16T04:18:56.429Z,16.44
2018-07-16T04:19:59.767Z,16.49
2018-07-16T04:21:02.788Z,16.60
2018-07-16T04:22:06.512Z,16.62
2018-07-16T04:23:09.478Z,16.60
2018-07-16T04:24:12.472Z,16.46
2018-07-16T04:25:15.354Z,16.43
2018-07-16T04:26:18.665Z,16.39
2018-07-16T04:27:21.577Z,16.52
2018-07-16T04:28:24.779Z,16.57
2018-07-16T04:29:27.825Z,16.48
2018-07-16T04:30:31.567Z,16.43
2018-07-16T04:31:40.861Z,16.40
2018-07-16T04:32:43.677Z,16.07
2018-07-16T04:33:46.507Z,15.62
2018-07-16T04:34:49.365Z,15.53
2018-07-16T04:37:06.809Z,16.02
2018-07-16T04:38:09.991Z,16.27
2018-07-16T04:39:12.813Z,16.44
2018-07-16T04:40:15.635Z,16.55
2018-07-16T04:41:18.531Z,16.49
2018-07-16T04:42:22.234Z,16.23
2018-07-16T04:43:25.100Z,16.11
2018-07-16T04:44:28.350Z,15.99
2018-07-16T04:45:31.172Z,16.01
2018-07-16T04:46:34.674Z,16.00
2018-07-16T04:47:37.550Z,16.19
2018-07-16T04:48:40.404Z,16.04
2018-07-16T04:49:43.293Z,15.67
2018-07-16T04:50:47.310Z,15.69
2018-07-16T04:51:50.209Z,15.90
2018-07-16T04:52:53.112Z,16.03
2018-07-16T04:53:55.951Z,16.03
2018-07-16T04:54:59.587Z,15.93
2018-07-16T04:56:02.466Z,16.06
2018-07-16T04:57:05.640Z,16.24
2018-07-16T04:58:08.471Z,16.17
2018-07-16T04:59:11.320Z,16.12
2018-07-16T05:00:14.150Z,16.22
2018-07-16T05:01:17.609Z,16.08
2018-07-16T05:02:20.538Z,15.92
2018-07-16T05:03:23.704Z,15.77
2018-07-16T05:04:26.553Z,15.57
2018-07-16T05:05:29.391Z,15.72
2018-07-16T05:06:32.241Z,15.84
2018-07-16T05:07:35.131Z,16.04
2018-07-16T05:08:37.993Z,16.12
2018-07-16T05:09:41.146Z,16.03
2018-07-16T05:10:44.033Z,16.02
2018-07-16T05:11:46.861Z,16.07
2018-07-16T05:12:49.717Z,16.21
2018-07-16T05:13:56.469Z,16.26
2018-07-16T05:14:59.568Z,16.36
2018-07-16T05:16:02.703Z,16.43
2018-07-16T05:17:05.524Z,16.31
2018-07-16T05:18:08.375Z,16.24
2018-07-16T05:19:11.312Z,16.22
2018-07-16T05:20:14.259Z,16.28
2018-07-16T05:21:17.073Z,16.41
2018-07-16T05:22:20.416Z,16.42
2018-07-16T05:23:23.302Z,16.21
2018-07-16T05:24:26.201Z,16.15
2018-07-16T05:25:29.079Z,16.24
2018-07-16T05:26:31.944Z,16.26
2018-07-16T05:27:34.832Z,16.18
2018-07-16T05:28:38.120Z,16.24
2018-07-16T05:29:40.965Z,16.45
2018-07-16T05:30:43.843Z,16.59
2018-07-16T05:31:46.757Z,16.64
2018-07-16T05:32:49.658Z,16.78
2018-07-16T05:33:52.548Z,16.79
2018-07-16T05:34:55.711Z,16.63
2018-07-16T05:35:58.548Z,16.59
2018-07-16T05:37:01.462Z,16.32
2018-07-16T05:38:04.359Z,15.87
2018-07-16T05:39:07.462Z,15.89
2018-07-16T05:40:10.307Z,16.00
2018-07-16T05:41:13.455Z,16.12
2018-07-16T05:42:16.308Z,15.78
2018-07-16T05:43:19.218Z,15.98
2018-07-16T05:44:22.098Z,16.11
2018-07-16T05:45:24.971Z,16.28
2018-07-16T05:46:27.788Z,16.48
2018-07-16T05:47:31.087Z,16.65
2018-07-16T05:48:35.557Z,16.68
2018-07-16T05:49:38.413Z,16.52
2018-07-16T05:50:41.333Z,16.63
2018-07-16T05:51:44.162Z,16.81
2018-07-16T05:52:47.027Z,16.91
2018-07-16T05:53:50.243Z,16.95
2018-07-16T05:54:53.071Z,16.92
2018-07-16T05:55:57.628Z,16.91
2018-07-16T05:57:00.480Z,16.98
2018-07-16T05:58:03.360Z,16.94
2018-07-16T05:59:08.287Z,16.85
2018-07-16T06:00:11.473Z,16.77
2018-07-16T06:01:15.476Z,16.86
2018-07-16T06:02:19.086Z,17.05
2018-07-16T06:03:22.507Z,17.15
2018-07-16T06:04:25.380Z,17.26
2018-07-16T06:05:28.228Z,17.14
2018-07-16T06:06:31.722Z,17.16
2018-07-16T06:07:34.598Z,17.15
2018-07-16T06:08:37.523Z,17.27
2018-07-16T06:09:40.660Z,17.37
2018-07-16T06:10:43.523Z,17.32
2018-07-16T06:11:46.398Z,17.42
2018-07-16T06:12:49.541Z,17.58
2018-07-16T06:13:52.469Z,17.60
2018-07-16T06:14:56.486Z,17.77
2018-07-16T06:15:59.755Z,17.82
2018-07-16T06:17:02.626Z,17.82
2018-07-16T06:18:05.487Z,17.87
2018-07-16T06:19:08.711Z,18.01
2018-07-16T06:20:13.458Z,18.15
2018-07-16T06:21:16.314Z,18.28
2018-07-16T06:22:19.172Z,18.36
2018-07-16T06:23:22.042Z,18.34
2018-07-16T06:24:24.902Z,18.38
2018-07-16T06:25:28.216Z,18.49
2018-07-16T06:26:31.648Z,18.46
2018-07-16T06:27:34.470Z,18.59
2018-07-16T06:28:38.373Z,18.79
2018-07-16T06:29:41.201Z,18.73
2018-07-16T06:30:44.824Z,18.72
2018-07-16T06:31:48.578Z,18.88
2018-07-16T06:32:52.936Z,19.00
2018-07-16T06:33:55.805Z,19.08
2018-07-16T06:34:58.685Z,19.23
2018-07-16T06:36:01.514Z,19.13
2018-07-16T06:37:04.648Z,19.17
2018-07-16T06:38:08.865Z,19.25
2018-07-16T06:39:11.724Z,19.35
2018-07-16T06:40:14.738Z,19.40
2018-07-16T06:41:17.736Z,19.45
2018-07-16T06:42:20.435Z,19.38
2018-07-16T06:43:23.317Z,19.41
2018-07-16T06:44:26.477Z,19.41
2018-07-16T06:45:29.318Z,19.58
2018-07-16T06:46:32.344Z,19.75
2018-07-16T06:47:35.217Z,19.93
2018-07-16T06:48:38.095Z,19.95
2018-07-16T06:49:41.004Z,20.08
2018-07-16T06:50:44.294Z,20.20
2018-07-16T06:51:48.113Z,20.20
2018-07-16T06:52:50.987Z,20.13
2018-07-16T06:53:53.906Z,20.30
2018-07-16T06:54:56.785Z,20.19
2018-07-16T06:55:59.710Z,20.17
2018-07-16T06:57:04.182Z,20.11
2018-07-16T06:58:07.241Z,20.33
2018-07-16T06:59:11.204Z,20.07
2018-07-16T07:00:14.079Z,20.21
2018-07-16T07:01:17.555Z,20.31
2018-07-16T07:02:20.443Z,20.16
2018-07-16T07:03:24.409Z,20.37
2018-07-16T07:04:28.054Z,20.39
2018-07-16T07:05:30.937Z,20.47
2018-07-16T07:06:33.806Z,20.46
2018-07-16T07:07:36.846Z,20.61
2018-07-16T07:08:39.729Z,20.68
2018-07-16T07:09:42.940Z,20.75
2018-07-16T07:10:45.774Z,20.93
2018-07-16T07:11:48.740Z,20.92
2018-07-16T07:12:51.643Z,21.08
2018-07-16T07:13:54.883Z,21.06
2018-07-16T07:14:57.733Z,21.24
2018-07-16T07:16:01.221Z,21.19
2018-07-16T07:17:04.152Z,21.03
2018-07-16T07:18:07.101Z,21.13
2018-07-16T07:19:10.897Z,21.14
2018-07-16T07:20:13.772Z,21.40
2018-07-16T07:21:16.763Z,21.66
2018-07-16T07:22:20.093Z,21.60
2018-07-16T07:24:34.413Z,21.94
2018-07-16T07:25:37.408Z,22.07
2018-07-16T07:26:40.186Z,22.28
2018-07-16T07:27:43.236Z,22.30
2018-07-16T07:28:47.019Z,22.50
2018-07-16T07:29:49.886Z,22.87
2018-07-16T07:30:52.730Z,23.11
2018-07-16T07:31:56.591Z,22.88
2018-07-16T07:32:59.475Z,22.78
2018-07-16T07:34:04.104Z,22.85
2018-07-16T07:35:08.291Z,22.72
2018-07-16T07:36:11.186Z,22.59
2018-07-16T07:37:14.259Z,22.73
2018-07-16T07:38:17.785Z,22.86
2018-07-16T07:39:21.204Z,22.89
2018-07-16T07:40:26.290Z,22.89
2018-07-16T07:41:29.379Z,23.04
2018-07-16T07:42:33.225Z,23.25
2018-07-16T07:43:36.103Z,23.48
2018-07-16T07:44:39.544Z,23.18
2018-07-16T07:45:43.389Z,23.20
2018-07-16T07:46:47.242Z,23.21
2018-07-16T07:47:53.499Z,23.47
2018-07-16T07:48:56.359Z,22.96
2018-07-16T07:49:59.245Z,23.27
2018-07-16T07:51:02.121Z,23.09
2018-07-16T07:52:04.940Z,22.90
2018-07-16T07:53:08.596Z,22.69
2018-07-16T07:54:11.921Z,22.64
2018-07-16T07:55:15.473Z,22.80
2018-07-16T07:56:18.502Z,22.82
2018-07-16T07:57:21.566Z,23.07
2018-07-16T07:58:26.678Z,23.26
2018-07-16T07:59:30.161Z,23.19
2018-07-16T08:00:34.254Z,23.16
2018-07-16T08:01:39.074Z,22.95
2018-07-16T08:02:41.951Z,23.05
2018-07-16T08:03:44.825Z,23.34
2018-07-16T08:04:48.541Z,23.82
2018-07-16T08:05:56.277Z,24.22
2018-07-16T08:07:04.409Z,23.76
2018-07-16T08:08:07.324Z,23.48
2018-07-16T08:09:10.181Z,23.55
2018-07-16T08:10:13.735Z,23.59
2018-07-16T08:11:16.635Z,23.88
2018-07-16T08:12:19.525Z,23.89
2018-07-16T08:13:22.680Z,24.02
2018-07-16T08:14:25.581Z,24.20
2018-07-16T08:15:28.821Z,24.29
2018-07-16T08:16:34.126Z,24.40
2018-07-16T08:17:37.286Z,24.20
2018-07-16T08:18:42.690Z,24.43
2018-07-16T08:19:49.447Z,24.75
2018-07-16T08:20:53.532Z,24.80
2018-07-16T08:21:59.479Z,25.11
2018-07-16T08:23:03.339Z,25.22
2018-07-16T08:24:06.265Z,25.00
2018-07-16T08:25:10.811Z,25.08
2018-07-16T08:26:15.641Z,25.36
2018-07-16T08:27:18.495Z,25.42
2018-07-16T08:28:21.793Z,25.75
2018-07-16T08:29:26.002Z,25.82
2018-07-16T08:30:28.916Z,25.92
2018-07-16T08:31:31.825Z,26.04
2018-07-16T08:32:35.177Z,25.81
2018-07-16T08:33:38.265Z,25.73
2018-07-16T08:34:41.192Z,25.24
2018-07-16T08:35:44.119Z,25.06
2018-07-16T08:36:47.583Z,25.33
2018-07-16T08:37:51.351Z,25.64
2018-07-16T08:38:56.468Z,25.58
2018-07-16T08:39:59.394Z,25.60
2018-07-16T08:41:02.243Z,25.36
2018-07-16T08:42:06.118Z,25.26
2018-07-16T08:43:09.022Z,25.49
2018-07-16T08:44:12.457Z,25.95
2018-07-16T08:45:16.615Z,26.25
2018-07-16T08:46:19.727Z,26.44
2018-07-16T08:47:23.723Z,26.50
2018-07-16T08:48:26.588Z,26.57
2018-07-16T08:49:29.493Z,26.53
2018-07-16T08:50:33.138Z,26.62
2018-07-16T08:51:36.381Z,26.23
2018-07-16T08:52:39.281Z,26.51
2018-07-16T08:53:42.238Z,26.88
2018-07-16T08:54:45.251Z,26.94
2018-07-16T08:55:49.718Z,26.91
2018-07-16T08:56:54.449Z,26.71
2018-07-16T08:57:57.608Z,25.91
2018-07-16T08:59:01.362Z,25.86
2018-07-16T09:00:05.614Z,25.82
2018-07-16T09:01:10.012Z,26.07
2018-07-16T09:02:41.717Z,25.99
2018-07-16T09:03:48.799Z,26.12
2018-07-16T09:04:52.114Z,26.26
2018-07-16T09:06:01.910Z,26.49
2018-07-16T09:07:04.765Z,25.63
2018-07-16T09:08:07.663Z,25.73
2018-07-16T09:09:10.488Z,26.22
2018-07-16T09:10:13.681Z,26.44
2018-07-16T09:11:16.630Z,26.68
2018-07-16T09:12:19.789Z,26.67
2018-07-16T09:13:22.870Z,26.53
2018-07-16T09:14:26.140Z,26.43
2018-07-16T09:15:28.992Z,26.17
2018-07-16T09:16:33.282Z,26.22
2018-07-16T09:17:36.787Z,26.41
2018-07-16T09:18:42.919Z,26.57
2018-07-16T09:19:46.627Z,26.20
2018-07-16T09:20:50.491Z,26.18
2018-07-16T09:21:55.092Z,26.20
2018-07-16T09:22:58.952Z,26.30
2018-07-16T09:24:01.812Z,26.55
2018-07-16T09:25:05.984Z,26.83
2018-07-16T09:26:08.861Z,27.25
2018-07-16T09:27:14.159Z,27.51
2018-07-16T09:28:18.193Z,27.62
2018-07-16T09:29:22.133Z,27.33
2018-07-16T09:30:25.798Z,27.22
2018-07-16T09:31:29.453Z,26.86
2018-07-16T09:32:32.363Z,26.85
2018-07-16T09:33:35.773Z,27.08
2018-07-16T09:34:42.842Z,27.33
2018-07-16T09:35:46.975Z,27.34
2018-07-16T09:37:03.454Z,27.15
2018-07-16T09:38:07.221Z,26.67
2018-07-16T09:39:10.490Z,26.63
2018-07-16T09:40:13.700Z,26.55
2018-07-16T09:41:18.027Z,26.43
2018-07-16T09:42:21.585Z,26.77
2018-07-16T09:43:24.421Z,27.01
2018-07-16T09:44:27.960Z,27.48
2018-07-16T09:45:30.993Z,27.32
2018-07-16T09:46:35.377Z,27.46
2018-07-16T09:47:41.795Z,27.30
2018-07-16T09:48:45.491Z,27.58
2018-07-16T09:49:48.487Z,27.23
2018-07-16T09:50:52.351Z,27.71
2018-07-16T09:51:56.564Z,28.10
2018-07-16T09:53:00.868Z,28.17
2018-07-16T09:54:04.283Z,27.99
2018-07-16T09:55:07.424Z,28.30
2018-07-16T09:56:13.751Z,28.46
2018-07-16T09:57:16.684Z,28.15
2018-07-16T09:58:19.563Z,28.09
2018-07-16T09:59:26.042Z,27.79
2018-07-16T10:00:39.364Z,27.69
2018-07-16T10:01:45.451Z,27.78
2018-07-16T10:02:48.964Z,27.43
2018-07-16T10:03:52.580Z,27.34
2018-07-16T10:04:55.823Z,27.37
2018-07-16T10:05:59.484Z,27.48
2018-07-16T10:07:03.596Z,27.25
2018-07-16T10:08:07.157Z,27.29
2018-07-16T10:09:10.643Z,27.55
2018-07-16T10:10:13.848Z,27.42
2018-07-16T10:11:22.197Z,27.26
2018-07-16T10:12:27.631Z,26.97
2018-07-16T10:13:32.475Z,27.07
2018-07-16T10:14:36.512Z,27.27
2018-07-16T10:18:07.021Z,28.35
2018-07-16T10:19:10.728Z,28.22
2018-07-16T10:20:15.502Z,27.62
2018-07-16T10:21:20.676Z,27.42
2018-07-16T10:22:24.155Z,27.53
2018-07-16T10:23:27.011Z,27.97
2018-07-16T10:24:30.108Z,28.24
2018-07-16T10:25:34.563Z,28.48
2018-07-16T10:26:37.950Z,28.06
2018-07-16T10:27:45.396Z,27.51
2018-07-16T10:28:48.941Z,27.57
2018-07-16T10:29:51.799Z,27.64
2018-07-16T10:30:54.677Z,27.76
2018-07-16T10:32:00.319Z,28.11
2018-07-16T10:33:03.291Z,28.41
2018-07-16T10:34:06.131Z,28.82
2018-07-16T10:35:08.969Z,29.17
2018-07-16T10:36:11.861Z,29.27
2018-07-16T10:37:14.803Z,29.02
2018-07-16T10:38:18.092Z,28.97
2018-07-16T10:39:22.374Z,29.00
2018-07-16T10:40:26.450Z,28.83
2018-07-16T10:41:29.331Z,28.76
2018-07-16T10:42:32.172Z,28.84
2018-07-16T10:43:36.612Z,28.28
2018-07-16T10:44:39.492Z,28.00
2018-07-16T10:45:46.614Z,28.63
2018-07-16T10:46:49.480Z,29.07
2018-07-16T10:47:54.144Z,29.41
2018-07-16T10:48:57.026Z,29.49
2018-07-16T10:49:59.940Z,29.43
2018-07-16T10:51:02.859Z,29.17
2018-07-16T10:52:06.260Z,28.63
2018-07-16T10:53:10.985Z,28.23
2018-07-16T10:54:16.342Z,28.17
2018-07-16T10:55:20.895Z,28.35
2018-07-16T10:56:23.828Z,28.42
2018-07-16T10:57:26.668Z,28.79
2018-07-16T10:58:29.516Z,29.11
2018-07-16T10:59:33.199Z,29.11
2018-07-16T11:00:36.309Z,29.15
2018-07-16T11:01:39.153Z,29.46
2018-07-16T11:02:42.016Z,29.10
2018-07-16T11:03:45.430Z,29.21
2018-07-16T11:04:48.319Z,29.21
2018-07-16T11:05:51.290Z,28.48
2018-07-16T11:06:55.069Z,28.69
2018-07-16T11:07:58.643Z,28.06
2018-07-16T11:09:03.229Z,27.63
2018-07-16T11:10:06.455Z,27.65
2018-07-16T11:11:09.432Z,27.65
2018-07-16T11:12:12.300Z,28.22
2018-07-16T11:13:16.165Z,29.10
2018-07-16T11:14:19.552Z,29.46
2018-07-16T11:15:23.263Z,29.27
2018-07-16T11:16:26.982Z,29.90
2018-07-16T11:17:29.932Z,29.94
2018-07-16T11:18:32.804Z,28.89
2018-07-16T11:19:36.255Z,28.05
2018-07-16T11:20:39.131Z,28.03
2018-07-16T11:21:45.654Z,28.07
2018-07-16T11:22:48.950Z,27.18
2018-07-16T11:23:52.450Z,27.21
2018-07-16T11:24:57.766Z,26.97
2018-07-16T11:26:07.471Z,26.62
2018-07-16T11:27:10.380Z,26.80
2018-07-16T11:28:15.580Z,27.14
2018-07-16T11:29:19.806Z,27.10
2018-07-16T11:30:22.664Z,26.94
2018-07-16T11:31:26.140Z,26.80
2018-07-16T11:32:29.505Z,26.76
2018-07-16T11:33:32.639Z,26.82
2018-07-16T11:34:37.215Z,26.96
2018-07-16T11:35:42.098Z,27.07
2018-07-16T11:36:45.917Z,27.32
2018-07-16T11:37:49.445Z,27.30
2018-07-16T11:38:52.628Z,27.51
2018-07-16T11:39:56.231Z,27.71
2018-07-16T11:41:00.099Z,27.41
2018-07-16T11:42:04.181Z,27.11
2018-07-16T11:43:07.840Z,26.78
2018-07-16T11:44:12.114Z,26.49
2018-07-16T11:45:16.646Z,26.69
2018-07-16T11:46:19.595Z,26.90
2018-07-16T11:47:24.051Z,27.12
2018-07-16T11:48:28.603Z,27.01
2018-07-16T11:49:31.550Z,27.26
2018-07-16T11:50:34.618Z,27.65
2018-07-16T11:51:38.630Z,28.13
2018-07-16T11:52:41.464Z,28.83
2018-07-16T11:53:46.430Z,29.26
2018-07-16T11:54:49.275Z,29.64
2018-07-16T11:55:52.815Z,29.57
2018-07-16T11:56:55.710Z,28.87
2018-07-16T11:59:07.959Z,28.04
2018-07-16T12:00:11.083Z,27.78
2018-07-16T12:01:14.768Z,27.69
2018-07-16T12:02:17.645Z,27.39
2018-07-16T12:03:20.794Z,27.42
2018-07-16T12:04:23.688Z,27.72
2018-07-16T12:05:26.509Z,28.07
2018-07-16T12:06:30.640Z,28.19
2018-07-16T12:07:34.941Z,28.42
2018-07-16T12:08:38.669Z,28.50
2018-07-16T12:09:41.527Z,28.57
2018-07-16T12:10:45.330Z,28.48
2018-07-16T12:11:48.293Z,28.21
2018-07-16T12:12:51.172Z,27.92
2018-07-16T12:13:54.883Z,27.82
2018-07-16T12:14:57.776Z,28.13
2018-07-16T12:16:00.733Z,28.18
2018-07-16T12:17:03.588Z,28.52
2018-07-16T12:18:06.871Z,29.02
2018-07-16T12:19:09.747Z,29.37
2018-07-16T12:20:12.562Z,29.47
2018-07-16T12:21:15.544Z,29.30
2018-07-16T12:22:18.680Z,28.97
2018-07-16T12:23:22.484Z,28.87
2018-07-16T12:24:25.761Z,29.03
2018-07-16T12:25:28.657Z,29.18
2018-07-16T12:26:31.837Z,29.30
2018-07-16T12:27:36.622Z,28.72
2018-07-16T12:28:39.452Z,28.64
2018-07-16T12:29:43.314Z,28.29
2018-07-16T12:30:46.843Z,28.34
2018-07-16T12:31:49.761Z,28.68
2018-07-16T12:32:53.963Z,28.68
2018-07-16T12:33:59.682Z,28.33
2018-07-16T12:35:02.559Z,28.10
2018-07-16T12:36:05.574Z,28.00
2018-07-16T12:37:09.752Z,27.64
2018-07-16T12:38:13.408Z,27.62
2018-07-16T12:39:16.223Z,27.82
2018-07-16T12:40:21.684Z,27.94
2018-07-16T12:41:25.613Z,27.63
2018-07-16T12:42:30.365Z,27.64
2018-07-16T12:43:34.264Z,27.57
2018-07-16T12:44:38.138Z,27.66
2018-07-16T12:45:41.267Z,27.94
2018-07-16T12:46:45.376Z,28.21
2018-07-16T12:47:48.235Z,28.20
2018-07-16T12:48:51.813Z,28.02
2018-07-16T12:49:55.902Z,28.14
2018-07-16T12:50:58.772Z,28.15
2018-07-16T12:52:01.991Z,27.62
2018-07-16T12:53:05.001Z,27.64
2018-07-16T12:54:07.917Z,27.26
2018-07-16T12:55:10.782Z,27.13
2018-07-16T12:56:17.875Z,26.83
2018-07-16T12:57:20.691Z,27.00
2018-07-16T12:58:23.577Z,27.18
2018-07-16T12:59:26.622Z,27.02
2018-07-16T13:00:30.790Z,27.19
2018-07-16T13:01:33.673Z,27.22
2018-07-16T13:02:37.228Z,27.19
2018-07-16T13:03:41.577Z,27.18
2018-07-16T13:04:44.460Z,26.86
2018-07-16T13:05:48.428Z,26.73
2018-07-16T13:06:51.305Z,27.03
2018-07-16T13:07:54.133Z,27.07
2018-07-16T13:08:57.515Z,27.20
2018-07-16T13:10:00.655Z,27.20
2018-07-16T13:11:03.582Z,27.27
2018-07-16T13:12:07.371Z,27.28
2018-07-16T13:13:12.296Z,27.27
2018-07-16T13:14:15.128Z,27.34
2018-07-16T13:15:18.404Z,27.39
2018-07-16T13:16:21.238Z,27.37
2018-07-16T13:17:24.470Z,27.45
2018-07-16T13:18:27.383Z,27.54
2018-07-16T13:19:30.301Z,27.51
2018-07-16T13:20:33.256Z,27.45
2018-07-16T13:21:36.456Z,27.49
2018-07-16T13:22:40.958Z,27.50
2018-07-16T13:23:43.827Z,27.42
2018-07-16T13:24:46.702Z,27.49
2018-07-16T13:25:51.450Z,27.51
2018-07-16T13:26:54.291Z,27.64
2018-07-16T13:27:57.451Z,27.67
2018-07-16T13:29:00.366Z,27.78
2018-07-16T13:30:03.693Z,27.72
2018-07-16T13:31:06.844Z,27.56
2018-07-16T13:32:09.762Z,27.42
2018-07-16T13:33:12.592Z,27.49
2018-07-16T13:34:15.789Z,27.43
2018-07-16T13:35:18.691Z,27.50
2018-07-16T13:36:21.627Z,27.59
2018-07-16T13:37:25.783Z,27.66
2018-07-16T13:38:28.662Z,27.67
2018-07-16T13:39:32.270Z,27.72
2018-07-16T13:40:36.370Z,27.86
2018-07-16T13:41:39.256Z,28.01
2018-07-16T13:42:42.221Z,28.04
2018-07-16T13:43:46.508Z,27.90